Eldridge, IA

11:13 AM CDT on May 24, 2015 (GMT -0500)
Davenport Municipal | | Change Station
CLOSE
Current Station
Airport
Location: Davenport,
Elevation: 755 ft
Nearby Weather Stations

Elev 755 ft 41.61 °N, 90.59 °W | Updated 10 minutes ago

Overcast
Overcast
61 °F
Feels Like 61 °F
N
13
Wind Variable Wind from East

Today
High -- | Low -- °F
--% Chance of Precip.
Yesterday
High -- | Low -- °F
Precip. -- in
5:35 AM 8:23 PM
Waxing Crescent, 40% visible
Pressure 30.03 in
Visibility 2.5 miles
Clouds Overcast 3900 ft
Dew Point 57 °F
Humidity 87%
Rainfall 0.23 in
Snow Depth Not available.
UV 3 out of 12
Pollen 7.60 out of 12
Air Quality Not available.
Flu Activity Sporadic
SPECI KDVN 241603Z AUTO 09011KT 2 1/2SM RA BR OVC039 16/14 A3003 RMK AO2 P0007 T01610139 $

More Conditions Fewer Conditions

Pressure 30.03 in
Visibility 2.5 miles
Clouds Overcast 3900 ft
Dew Point 57 °F
Humidity 87%
Rainfall 0.23 in
Snow Depth Not available.
UV 3 out of 12
Pollen 7.60 out of 12
Air Quality Not available.
Flu Activity Sporadic
SPECI KDVN 241603Z AUTO 09011KT 2 1/2SM RA BR OVC039 16/14 A3003 RMK AO2 P0007 T01610139 $

More Conditions Fewer Conditions

10-Day Weather Forecast

Almanac

Astronomy

May. 24, 2015 Rise Set
Actual Time
Civil Twilight
Nautical Twilight
Astronomical Twilight
Moon
Length of Visible Light
Length of Day
Tomorrow will be .
, % of the Moon is Illuminated

Today's Extremes

State Highs State Lows

Community

WunderPhotos

Upload Photos

1,823,781 photos uploaded!

WunderBlogs® & News

Nearby

Air Quality

  Air Quality AQ Index Pollutant
Not available.

Snow Depth

Station Depth Elevation

Earthquake Activity

City Distance Mag. Time & Date
Minimum magnitude displayed is 2.5.

Coastal Water Temperatures

Place Temperature

Stations

Nearby Weather Stations

Station Location Temp. Windchill Dew Point Humidity Wind Precip. Elev Updated Type